Main page
METAR-TAF:

METAR-TAF

Airports :

Dax, France

Aérodrome de Dax - Seyresse

latitude: 43-41N, longitude: 001-04W, elevation: 32 m

Current weather observation

The report was made 20 minutes ago, at 03:30 UTC
Wind 2 kt from variable directions
Temperature 8°C
Humidity 100%
Pressure 1023 hPa
Visibility 10 km or more

METAR: LFBY 200330Z AUTO VRB02KT 9999 // ////// 08/08 Q1023

Time: 05:50 (03:50 UTC)

Forecast

The report was made 19 hours and 50 minutes ago, at 08:00 UTC
Forecast valid from 19 at 09 UTC to 19 at 18 UTC
Wind 5 kt from the South/Southwest
Visibility 10 km or more
Scattered clouds at a height of 3000 ft
Becoming
from 19 at 11 UTC to 19 at 13 UTC
Wind 10 kt from the West/Northwest

TAF: LFBY 190800Z 1909/1918 20005KT 9999 SCT030 BECMG 1911/1913 30010KT

Weather observations and forecasts of more than 4000 airports (METAR and TAF reports).

The available stations are represented by yellow and red dots on the map.

Hover mouse over dot to see the name of the station.

Then click to see weather observations and forecasts.

To change the map : click on the green buttons with a black cross to zoom in, on the green button with a dash to zoom out, or on the green arrows for adjacent maps.


METAR-TAF: